Time;durP1;ratioP1;P1;durP2;ratioP2;P2;SDS_P1;SDS_P2;PMS_P1;PMS_P2;Temp;Humidity;BMP_temperature;BMP_pressure;BME280_temperature;BME280_humidity;BME280_pressure;Samples;Min_cycle;Max_cycle;Signal;HPM_P1;HPM_P2
2024/01/25 00:00:21;;;;;;;;;1.00;1.00;;;;;12.96;74.54;103084.44;2037670;27;2739896;-77
2024/01/25 00:01:34;;;;;;;;;1.33;1.33;;;;;12.91;74.44;103076.50;2037296;27;2729444;-77
2024/01/25 00:02:47;;;;;;;;;3.00;2.00;;;;;12.89;74.58;103078.28;2038272;27;2737797;-77
2024/01/25 00:04:00;;;;;;;;;1.67;1.67;;;;;12.89;74.73;103077.44;2044869;27;2734664;-77
2024/01/25 00:05:11;;;;;;;;;3.33;3.33;;;;;12.86;74.99;103074.81;2018517;27;2749249;-77
2024/01/25 00:06:22;;;;;;;;;1.00;1.00;;;;;12.85;74.81;103076.56;2066401;27;2734644;-77
2024/01/25 00:07:45;;;;;;;;;2.00;2.00;;;;;12.81;74.77;103072.19;2043922;27;2737779;-77
2024/01/25 00:08:58;;;;;;;;;1.50;1.50;;;;;12.78;74.87;103067.81;2045626;27;2739896;-77
2024/01/25 00:10:11;;;;;;;;;2.67;1.83;;;;;12.78;75.06;103062.53;2046223;27;2740928;-77
2024/01/25 00:11:24;;;;;;;;;3.83;2.17;;;;;12.78;74.97;103067.81;2036891;27;2741936;-77
2024/01/25 00:12:38;;;;;;;;;2.17;2.17;;;;;12.78;75.26;103062.53;2033189;27;2738264;-78
2024/01/25 00:13:51;;;;;;;;;1.17;1.17;;;;;12.77;75.40;103055.47;2039977;27;2730497;-77
2024/01/25 00:15:04;;;;;;;;;2.00;2.00;;;;;12.76;75.30;103056.38;2046665;27;2729463;-77
2024/01/25 00:16:18;;;;;;;;;0.00;0.00;;;;;12.75;75.52;103054.63;2040999;27;2735686;-77
2024/01/25 00:17:31;;;;;;;;;1.33;1.33;;;;;12.75;75.53;103051.09;2042964;27;2727392;-77
2024/01/25 00:18:41;;;;;;;;;2.00;2.00;;;;;12.75;75.60;103056.38;2020350;27;2754474;-77
2024/01/25 00:19:52;;;;;;;;;1.00;1.00;;;;;12.76;75.48;103053.75;2060988;27;2737848;-77
2024/01/25 00:21:05;;;;;;;;;1.50;1.50;;;;;12.74;75.38;103050.22;2032043;27;2727386;-77
2024/01/25 00:22:16;;;;;;;;;3.33;2.67;;;;;12.76;75.70;103056.38;2013040;27;2746102;-77
2024/01/25 00:23:27;;;;;;;;;3.00;3.00;;;;;12.76;76.07;103052.84;2061979;27;2752351;-77
2024/01/25 00:24:38;;;;;;;;;2.67;2.00;;;;;12.74;75.74;103044.94;2048805;27;2754462;-77
2024/01/25 00:25:49;;;;;;;;;1.67;1.67;;;;;12.74;76.31;103046.72;2044277;27;2748201;-78
2024/01/25 00:27:00;;;;;;;;;3.25;3.25;;;;;12.73;76.13;103032.63;2055029;27;2741967;-78
2024/01/25 00:28:14;;;;;;;;;2.00;2.00;;;;;12.72;76.21;103044.06;2070444;27;2735725;-78
2024/01/25 00:29:27;;;;;;;;;2.00;2.00;;;;;12.73;75.99;103045.84;2040627;27;2738842;-78
2024/01/25 00:30:40;;;;;;;;;2.17;2.17;;;;;12.73;76.34;103039.66;2044299;27;2751706;-78
2024/01/25 00:31:53;;;;;;;;;1.17;1.17;;;;;12.73;76.22;103039.66;2044221;27;2726385;-78
2024/01/25 00:33:06;;;;;;;;;2.00;2.00;;;;;12.73;76.40;103040.56;2061999;27;2737845;-78
2024/01/25 00:34:20;;;;;;;;;2.33;2.33;;;;;12.74;76.25;103038.81;2044676;27;2750269;-78
2024/01/25 00:35:33;;;;;;;;;1.50;1.50;;;;;12.73;76.60;103037.91;2044726;27;2729448;-78
2024/01/25 00:36:47;;;;;;;;;2.00;2.00;;;;;12.73;76.59;103037.91;2046299;27;2746113;-77
2024/01/25 00:38:00;;;;;;;;;2.00;2.00;;;;;12.74;76.38;103036.16;2040599;27;2736737;-78
2024/01/25 00:39:14;;;;;;;;;1.00;1.00;;;;;12.74;76.31;103039.66;2046360;27;2737858;-78
2024/01/25 00:40:24;;;;;;;;;2.33;2.33;;;;;12.74;76.39;103038.81;2006935;27;2752353;-78
2024/01/25 00:41:36;;;;;;;;;2.75;2.75;;;;;12.73;76.38;103039.66;2061829;27;2736755;-78
2024/01/25 00:42:53;;;;;;;;;3.00;2.17;;;;;12.73;76.28;103037.91;2047376;27;2753377;-78
2024/01/25 00:44:06;;;;;;;;;2.00;2.00;;;;;12.73;76.45;103032.63;2036716;27;2748182;-78
2024/01/25 00:45:17;;;;;;;;;2.00;2.00;;;;;12.75;76.52;103038.78;2012996;27;2746145;-78
2024/01/25 00:46:29;;;;;;;;;1.75;1.50;;;;;12.74;76.76;103034.38;2069190;27;2730504;-78
2024/01/25 00:47:42;;;;;;;;;1.33;1.33;;;;;12.75;76.34;103037.91;2066771;27;2732573;-78
2024/01/25 00:48:56;;;;;;;;;1.00;1.00;;;;;12.76;76.60;103029.09;2039613;27;2728422;-78
2024/01/25 00:50:09;;;;;;;;;2.17;2.17;;;;;12.75;76.65;103025.59;2069956;27;2733663;-78
2024/01/25 00:51:23;;;;;;;;;1.67;1.67;;;;;12.77;76.44;103028.22;2046865;27;2736752;-78
2024/01/25 00:52:36;;;;;;;;;2.00;2.00;;;;;12.77;76.78;103022.94;2046621;27;2735005;-78
2024/01/25 00:53:50;;;;;;;;;1.00;1.00;;;;;12.77;76.59;103018.53;2047858;27;2726816;-78
2024/01/25 00:55:03;;;;;;;;;1.83;1.83;;;;;12.77;76.78;103015.91;2069447;27;2733614;-77
2024/01/25 00:56:17;;;;;;;;;2.17;2.17;;;;;12.77;76.93;103021.16;2037427;27;2735683;-78
2024/01/25 00:57:30;;;;;;;;;1.00;1.00;;;;;12.77;76.70;103023.81;2038593;27;2730517;-78
2024/01/25 00:58:44;;;;;;;;;2.17;2.17;;;;;12.78;76.70;103020.31;2070453;27;2733164;-77
2024/01/25 00:59:55;;;;;;;;;3.00;3.00;;;;;12.77;76.56;103012.38;2017959;27;2754423;-78
2024/01/25 01:01:09;;;;;;;;;1.17;1.17;;;;;12.77;76.67;103018.53;2070248;27;2739896;-78
2024/01/25 01:02:23;;;;;;;;;1.00;1.00;;;;;12.77;76.92;103012.38;2044004;27;2721114;-78
2024/01/25 01:03:36;;;;;;;;;1.33;1.33;;;;;12.76;76.80;103019.44;2047713;27;2728403;-78
2024/01/25 01:04:50;;;;;;;;;2.00;2.00;;;;;12.78;76.68;103020.31;2045919;27;2738806;-78
2024/01/25 01:06:00;;;;;;;;;2.00;2.00;;;;;12.77;76.68;103012.38;2010213;27;2750323;-77
2024/01/25 01:07:12;;;;;;;;;3.25;3.25;;;;;12.79;76.75;103018.53;2060427;27;2754490;-77
2024/01/25 01:08:26;;;;;;;;;2.83;2.83;;;;;12.78;76.82;103016.78;2067085;27;2746164;-78
2024/01/25 01:09:39;;;;;;;;;2.33;2.33;;;;;12.76;77.03;103013.28;2046480;27;2753393;-78
2024/01/25 01:10:49;;;;;;;;;3.00;3.00;;;;;12.74;76.76;103015.91;2020431;27;2754459;-78
2024/01/25 01:12:00;;;;;;;;;2.00;1.00;;;;;12.73;76.67;103014.16;2077560;27;2731551;-77
2024/01/25 01:13:14;;;;;;;;;3.00;2.00;;;;;12.73;76.74;103015.94;2052345;27;2747152;-78
2024/01/25 01:14:27;;;;;;;;;3.50;3.00;;;;;12.72;77.08;103020.31;2044919;27;2750627;-78
2024/01/25 01:15:40;;;;;;;;;2.67;2.67;;;;;12.70;76.88;103019.44;2042649;27;2747143;-78
2024/01/25 01:16:53;;;;;;;;;1.50;1.50;;;;;12.70;76.96;103020.34;2042127;27;2736728;-78
2024/01/25 01:18:07;;;;;;;;;2.33;2.33;;;;;12.68;77.22;103021.22;2045574;27;2732565;-78
2024/01/25 01:19:20;;;;;;;;;2.17;2.17;;;;;12.67;77.02;103019.47;2046454;27;2722144;-78
2024/01/25 01:20:33;;;;;;;;;3.33;3.33;;;;;12.65;77.43;103014.19;2035686;27;2730494;-77
2024/01/25 01:21:43;;;;;;;;;2.00;2.00;;;;;12.65;77.64;103018.59;2012671;27;2753397;-77
2024/01/25 01:22:54;;;;;;;;;4.00;3.00;;;;;12.61;77.51;103012.47;2057443;27;2749737;-78
2024/01/25 01:24:05;;;;;;;;;6.33;6.33;;;;;12.60;77.27;103016.88;2067971;27;2746101;-78
2024/01/25 01:25:16;;;;;;;;;3.67;3.67;;;;;12.59;77.17;103008.97;2019633;27;2754435;-78
2024/01/25 01:26:27;;;;;;;;;7.33;7.33;;;;;12.56;77.57;103015.13;2057984;27;2737782;-78
2024/01/25 01:27:40;;;;;;;;;6.33;6.33;;;;;12.53;77.36;103014.25;2036174;27;2728425;-78
2024/01/25 01:28:50;;;;;;;;;5.67;5.67;;;;;12.50;77.55;103012.50;2011336;27;2750368;-78
2024/01/25 01:30:03;;;;;;;;;6.00;6.00;;;;;12.48;77.36;103011.66;2060176;27;2738835;-77
2024/01/25 01:31:14;;;;;;;;;8.00;8.00;;;;;12.47;77.39;103013.41;2039054;27;3462759;-77
2024/01/25 01:32:27;;;;;;;;;6.50;6.50;;;;;12.48;77.63;103014.28;2068657;27;2746106;-78
2024/01/25 01:33:40;;;;;;;;;7.83;7.50;;;;;12.48;77.63;103016.91;2069297;27;2738171;-78
2024/01/25 01:34:53;;;;;;;;;6.17;6.17;;;;;12.47;77.72;103005.50;2042283;27;2743028;-78
2024/01/25 01:36:04;;;;;;;;;5.33;5.33;;;;;12.47;77.33;103010.75;2017966;27;2742962;-78
2024/01/25 01:37:14;;;;;;;;;5.67;5.67;;;;;12.47;77.62;103004.63;2046991;27;2748257;-78
2024/01/25 01:38:26;;;;;;;;;4.75;4.75;;;;;12.46;77.23;103010.78;2056422;27;2750284;-78
2024/01/25 01:39:37;;;;;;;;;3.00;3.00;;;;;12.44;77.47;103017.84;2043535;27;2754431;-78
2024/01/25 01:40:48;;;;;;;;;4.00;4.00;;;;;12.40;77.54;103013.44;2050864;27;2754427;-78
2024/01/25 01:41:59;;;;;;;;;5.67;5.67;;;;;12.40;77.60;103008.16;2060399;27;2745133;-77
2024/01/25 01:43:17;;;;;;;;;4.00;4.00;;;;;12.40;77.63;103010.78;2012024;27;2752441;-77
2024/01/25 01:44:31;;;;;;;;;4.33;4.33;;;;;12.38;77.67;103013.44;2060589;27;2752340;-77
2024/01/25 01:45:41;;;;;;;;;4.00;4.00;;;;;12.38;77.58;103016.09;2015527;27;2754431;-77
2024/01/25 01:46:54;;;;;;;;;4.00;4.00;;;;;12.36;77.87;103013.47;2069160;27;2743008;-77
2024/01/25 01:48:06;;;;;;;;;4.00;4.00;;;;;12.34;77.49;103017.88;2043692;27;2751321;-77
2024/01/25 01:49:19;;;;;;;;;3.33;3.33;;;;;12.32;77.40;103014.34;2068481;27;2739856;-77
2024/01/25 01:50:32;;;;;;;;;2.33;2.33;;;;;12.30;77.46;103010.84;2041964;27;2746099;-77
2024/01/25 01:51:43;;;;;;;;;3.00;3.00;;;;;12.31;77.61;103009.09;2015658;27;2754432;-78
2024/01/25 01:52:57;;;;;;;;;3.67;3.67;;;;;12.32;77.86;103010.84;2070165;27;2735692;-78
2024/01/25 01:54:10;;;;;;;;;1.33;1.33;;;;;12.33;77.58;103015.22;2076359;27;2741939;-78
2024/01/25 01:55:23;;;;;;;;;5.67;3.50;;;;;12.33;77.68;103002.91;2044213;27;2749230;-78
2024/01/25 01:56:39;;;;;;;;;3.00;3.00;;;;;12.33;77.62;103015.22;2043599;27;2746105;-78
2024/01/25 01:57:53;;;;;;;;;2.17;2.17;;;;;12.30;77.55;103008.19;2037602;27;2745604;-78
2024/01/25 01:59:08;;;;;;;;;5.00;5.00;;;;;12.31;77.60;103009.97;2019785;27;2750256;-78
2024/01/25 02:00:22;;;;;;;;;2.67;2.67;;;;;12.30;77.77;103013.47;2069334;27;2740881;-78
2024/01/25 02:01:35;;;;;;;;;3.00;3.00;;;;;12.30;77.77;103013.47;2045645;27;2747545;-78
2024/01/25 02:02:48;;;;;;;;;3.17;3.17;;;;;12.31;77.90;103006.44;2046052;27;2738846;-77
2024/01/25 02:03:59;;;;;;;;;3.33;3.33;;;;;12.31;77.98;103006.44;2020111;27;2745068;-78
2024/01/25 02:05:10;;;;;;;;;3.00;3.00;;;;;12.32;77.80;103010.84;2066738;27;2754972;-78
2024/01/25 02:06:22;;;;;;;;;3.67;3.67;;;;;12.33;77.66;103008.19;2049354;27;2754469;-78
2024/01/25 02:07:35;;;;;;;;;0.83;0.83;;;;;12.31;77.65;102999.41;2062397;27;2722184;-78
2024/01/25 02:08:47;;;;;;;;;3.67;3.67;;;;;12.34;77.90;103007.31;2010493;27;2732561;-78
2024/01/25 02:09:57;;;;;;;;;3.33;3.33;;;;;12.34;77.88;103006.44;2036275;27;2744042;-77
2024/01/25 02:11:12;;;;;;;;;3.00;3.00;;;;;12.35;77.87;103002.91;2061180;27;2754430;-77
2024/01/25 02:12:25;;;;;;;;;3.33;3.33;;;;;12.36;77.73;103009.94;2069269;27;2748206;-77
2024/01/25 02:13:38;;;;;;;;;2.67;2.67;;;;;12.35;78.20;103005.53;2045706;27;2740882;-77
2024/01/25 02:14:48;;;;;;;;;2.67;2.67;;;;;12.35;78.14;103011.69;2019090;27;2752353;-77
2024/01/25 02:16:00;;;;;;;;;4.33;4.33;;;;;12.36;77.99;103012.59;2060019;27;2740898;-77
2024/01/25 02:17:13;;;;;;;;;2.17;2.17;;;;;12.35;77.81;103010.81;2069203;27;2736738;-77
2024/01/25 02:18:24;;;;;;;;;3.67;3.67;;;;;12.36;77.75;103004.66;2020004;27;2750265;-77
2024/01/25 02:19:37;;;;;;;;;3.40;3.40;;;;;12.36;77.54;103008.19;2056359;27;2749254;-77
2024/01/25 02:20:50;;;;;;;;;2.50;2.50;;;;;12.34;77.63;103009.97;2035709;27;2745065;-77
2024/01/25 02:22:05;;;;;;;;;3.33;2.50;;;;;12.34;77.58;103009.06;2044658;27;2754445;-77
2024/01/25 02:23:18;;;;;;;;;2.33;2.33;;;;;12.32;77.28;102998.50;2045813;27;2750295;-78
2024/01/25 02:24:32;;;;;;;;;2.67;1.67;;;;;12.30;77.56;103005.56;2037490;27;2736762;-78
2024/01/25 02:25:42;;;;;;;;;2.33;2.33;;;;;12.30;77.72;103000.28;2012206;27;2750306;-78
2024/01/25 02:26:53;;;;;;;;;3.00;2.00;;;;;12.31;77.62;103011.72;2040808;28;2751830;-78
2024/01/25 02:28:04;;;;;;;;;3.00;3.00;;;;;12.28;77.91;103004.69;2039866;27;2754451;-78
2024/01/25 02:29:17;;;;;;;;;2.00;2.00;;;;;12.29;77.78;102995.91;2058768;27;2750261;-78
2024/01/25 02:30:30;;;;;;;;;3.50;3.50;;;;;12.29;77.62;102995.91;2053602;27;2746130;-78
2024/01/25 02:31:43;;;;;;;;;3.83;3.83;;;;;12.29;77.75;102995.03;2052403;27;2752411;-78
2024/01/25 02:32:56;;;;;;;;;1.50;1.50;;;;;12.29;77.78;103006.47;2045929;27;2727353;-78
2024/01/25 02:34:09;;;;;;;;;3.50;3.50;;;;;12.30;77.68;103000.28;2046011;27;2738802;-78
2024/01/25 02:35:23;;;;;;;;;3.33;3.33;;;;;12.30;77.54;102999.44;2044996;27;2747163;-78
2024/01/25 02:36:36;;;;;;;;;2.17;2.17;;;;;12.30;77.92;103000.28;2044426;27;2725305;-78
2024/01/25 02:37:47;;;;;;;;;3.00;3.00;;;;;12.30;77.98;103004.72;2009775;27;2752374;-78
2024/01/25 02:38:57;;;;;;;;;3.00;2.67;;;;;12.31;77.69;103004.69;2037014;27;2754460;-78
2024/01/25 02:40:10;;;;;;;;;1.75;1.75;;;;;12.31;77.75;103009.97;2067118;27;2740901;-78
2024/01/25 02:41:23;;;;;;;;;3.00;3.00;;;;;12.30;77.78;103008.19;2069090;27;2746100;-77
2024/01/25 02:42:36;;;;;;;;;3.00;3.00;;;;;12.30;77.68;103000.28;2040793;27;2744057;-77
2024/01/25 02:43:49;;;;;;;;;4.00;4.00;;;;;12.31;77.80;103003.81;2038599;27;2741943;-77
2024/01/25 02:45:03;;;;;;;;;2.33;2.33;;;;;12.30;77.53;103007.34;2044964;27;2739907;-78
2024/01/25 02:46:13;;;;;;;;;3.33;3.33;;;;;12.30;77.65;103007.34;2015396;27;2753417;-78
2024/01/25 02:47:24;;;;;;;;;2.67;2.67;;;;;12.30;77.99;103008.19;2067432;27;2741951;-78
2024/01/25 02:48:38;;;;;;;;;4.00;4.00;;;;;12.29;77.86;103001.19;2042941;27;2737765;-78
2024/01/25 02:49:48;;;;;;;;;3.00;3.00;;;;;12.30;77.67;102999.44;2011984;27;2747188;-78
2024/01/25 02:50:59;;;;;;;;;3.33;3.33;;;;;12.30;77.86;103004.72;2068077;27;2749226;-78
2024/01/25 02:52:12;;;;;;;;;4.00;4.00;;;;;12.30;77.85;103002.06;2069214;27;2735690;-78
2024/01/25 02:53:25;;;;;;;;;3.33;3.33;;;;;12.30;77.78;103002.91;2045125;27;2735714;-78
2024/01/25 02:54:39;;;;;;;;;4.17;4.17;;;;;12.31;77.77;103009.09;2040315;27;2736732;-78
2024/01/25 02:55:52;;;;;;;;;4.67;4.67;;;;;12.31;78.11;103007.31;2034284;27;2745556;-78
2024/01/25 02:57:05;;;;;;;;;4.50;4.00;;;;;12.30;77.86;103005.56;2034467;27;2741967;-78
2024/01/25 02:58:19;;;;;;;;;4.33;4.33;;;;;12.32;77.92;103011.69;2030182;27;2738800;-78
2024/01/25 02:59:29;;;;;;;;;4.00;4.00;;;;;12.30;77.56;103007.34;2012405;27;2750355;-78
2024/01/25 03:00:40;;;;;;;;;4.00;4.00;;;;;12.31;77.94;103012.59;2059387;27;2754460;-78
2024/01/25 03:01:53;;;;;;;;;5.00;4.33;;;;;12.31;78.00;103009.09;2059065;27;2741397;-78
2024/01/25 03:03:06;;;;;;;;;4.83;4.83;;;;;12.31;77.70;103009.09;2038168;27;2745083;-78
2024/01/25 03:04:16;;;;;;;;;5.00;5.00;;;;;12.30;77.89;103005.56;2009159;27;2748193;-78
2024/01/25 03:05:27;;;;;;;;;0.33;0.33;;;;;12.30;78.08;103013.47;2054629;27;2727349;-77
2024/01/25 03:06:40;;;;;;;;;6.67;5.33;;;;;12.29;78.01;103003.81;2049989;27;2748196;-77
2024/01/25 03:07:51;;;;;;;;;3.00;3.00;;;;;12.29;77.99;103001.19;2011335;27;2755032;-77
2024/01/25 03:09:06;;;;;;;;;4.25;4.25;;;;;12.31;78.21;103003.81;2067912;27;2748224;-78
2024/01/25 03:10:16;;;;;;;;;4.00;4.00;;;;;12.31;77.91;103004.69;2042195;27;2739863;-78
2024/01/25 03:11:28;;;;;;;;;3.33;3.33;;;;;12.31;77.78;102999.41;2068304;27;2735661;-78
2024/01/25 03:12:41;;;;;;;;;3.50;3.50;;;;;12.33;77.98;103002.03;2059711;27;2737761;-78
2024/01/25 03:13:54;;;;;;;;;4.00;4.00;;;;;12.32;78.06;102998.50;2035340;27;2735702;-78
2024/01/25 03:15:10;;;;;;;;;2.00;2.00;;;;;12.32;78.20;103001.16;2041889;27;2738817;-78
2024/01/25 03:16:23;;;;;;;;;4.33;4.33;;;;;12.33;77.84;103002.91;2041321;27;2748250;-78
2024/01/25 03:17:33;;;;;;;;;4.00;4.00;;;;;12.32;78.04;102998.50;2011494;27;2741973;-78
2024/01/25 03:18:44;;;;;;;;;4.33;4.33;;;;;12.32;77.89;103002.94;2060693;27;2748688;-78
2024/01/25 03:19:55;;;;;;;;;4.33;4.00;;;;;12.33;77.80;102999.41;2067686;27;2741983;-78
2024/01/25 03:21:06;;;;;;;;;4.00;4.00;;;;;12.33;77.93;102992.38;2020133;27;2750264;-78
2024/01/25 03:22:17;;;;;;;;;2.00;2.00;;;;;12.33;78.19;103002.91;2058230;27;2731554;-78
2024/01/25 03:23:27;;;;;;;;;4.00;4.00;;;;;12.33;78.14;102997.66;2035631;27;2750268;-78
2024/01/25 03:24:39;;;;;;;;;5.75;5.75;;;;;12.32;78.26;103003.78;2058614;27;2746095;-78
2024/01/25 03:25:52;;;;;;;;;4.67;4.67;;;;;12.32;78.19;102998.50;2036433;27;2744022;-78
2024/01/25 03:27:12;;;;;;;;;4.50;4.50;;;;;12.32;77.98;103000.31;2036031;27;2738886;-78
2024/01/25 03:28:26;;;;;;;;;3.17;3.17;;;;;12.31;78.26;102988.88;2037675;27;2746118;-78
2024/01/25 03:29:43;;;;;;;;;3.00;3.00;;;;;12.32;78.03;102993.25;2030349;27;2754813;-78
2024/01/25 03:30:53;;;;;;;;;4.67;4.67;;;;;12.33;78.17;102997.66;2012790;27;2754446;-78
2024/01/25 03:32:04;;;;;;;;;3.33;3.33;;;;;12.32;78.20;102993.25;2058061;27;2746133;-78
2024/01/25 03:33:17;;;;;;;;;4.17;4.17;;;;;12.32;77.92;102997.66;2061532;27;2740900;-78
2024/01/25 03:34:31;;;;;;;;;3.17;3.17;;;;;12.32;78.09;103006.44;2045567;27;2747132;-78
2024/01/25 03:35:44;;;;;;;;;3.00;3.00;;;;;12.32;77.92;103001.16;2043810;27;2741962;-78
2024/01/25 03:36:57;;;;;;;;;3.67;3.67;;;;;12.34;78.05;102998.53;2044740;27;2744031;-78
2024/01/25 03:38:08;;;;;;;;;4.33;4.33;;;;;12.31;78.06;102988.88;2008605;27;2744026;-78
2024/01/25 03:39:18;;;;;;;;;3.33;3.33;;;;;12.31;78.22;102988.88;2039492;27;2754431;-78
2024/01/25 03:40:30;;;;;;;;;4.33;4.33;;;;;12.31;77.94;102988.88;2058939;27;2739906;-78
2024/01/25 03:41:43;;;;;;;;;3.50;3.50;;;;;12.32;78.22;102993.25;2041139;27;2744486;-78
2024/01/25 03:42:56;;;;;;;;;4.50;3.83;;;;;12.33;78.41;102988.84;2038820;27;2748230;-78
2024/01/25 03:44:09;;;;;;;;;4.17;4.17;;;;;12.33;78.27;102991.50;2041518;27;2744002;-78
2024/01/25 03:45:22;;;;;;;;;2.50;2.50;;;;;12.34;78.25;102993.25;2041876;27;2745077;-78
2024/01/25 03:46:35;;;;;;;;;4.50;3.83;;;;;12.33;77.72;102984.47;2036075;27;2735692;-78
2024/01/25 03:47:49;;;;;;;;;3.00;3.00;;;;;12.34;78.12;102985.34;2039346;27;2734640;-78
2024/01/25 03:48:59;;;;;;;;;3.00;3.00;;;;;12.32;78.16;102976.56;2015096;27;2749215;-78
2024/01/25 03:50:10;;;;;;;;;3.00;3.00;;;;;12.33;78.29;102980.94;2068389;27;2736715;-78
2024/01/25 03:51:20;;;;;;;;;2.00;2.00;;;;;12.34;78.12;102985.34;2042591;27;2751304;-78
2024/01/25 03:52:31;;;;;;;;;2.00;2.00;;;;;12.34;77.82;102990.63;2058720;27;2751341;-78
2024/01/25 03:53:45;;;;;;;;;4.00;4.00;;;;;12.33;78.00;102988.84;2058158;27;2744011;-78
2024/01/25 03:54:58;;;;;;;;;2.67;2.67;;;;;12.33;77.98;102987.09;2045907;27;2741997;-78
2024/01/25 03:56:13;;;;;;;;;3.00;3.00;;;;;12.33;78.10;102983.56;2045243;27;2747619;-78
2024/01/25 03:57:23;;;;;;;;;2.67;2.67;;;;;12.32;78.38;102979.22;2012108;27;2745076;-78
2024/01/25 03:58:34;;;;;;;;;3.00;3.00;;;;;12.32;78.05;102987.13;2044432;28;2752396;-78
2024/01/25 03:59:45;;;;;;;;;4.00;4.00;;;;;12.31;77.98;102988.88;2052247;27;2747148;-78
2024/01/25 04:00:55;;;;;;;;;4.00;4.00;;;;;12.30;78.21;102992.38;2014048;27;2749229;-77
2024/01/25 04:02:07;;;;;;;;;3.00;3.00;;;;;12.29;78.05;102988.00;2060408;27;2737789;-77
2024/01/25 04:03:17;;;;;;;;;2.00;2.00;;;;;12.29;77.98;102992.38;2036644;27;2738111;-78
2024/01/25 04:04:28;;;;;;;;;4.00;4.00;;;;;12.27;78.03;102988.00;2060710;27;2754470;-78
2024/01/25 04:05:39;;;;;;;;;4.67;4.67;;;;;12.27;78.36;102987.13;2053601;27;2752351;-78
2024/01/25 04:06:52;;;;;;;;;3.60;3.60;;;;;12.27;78.22;102993.25;2060790;27;2736727;-78
2024/01/25 04:08:06;;;;;;;;;1.00;1.00;;;;;12.27;78.21;102993.25;2063398;27;2729931;-78
2024/01/25 04:09:19;;;;;;;;;2.17;2.17;;;;;12.27;78.14;102992.41;2045326;27;2735742;-78
2024/01/25 04:10:33;;;;;;;;;4.00;4.00;;;;;12.26;78.16;102994.16;2045300;27;2740181;-78
2024/01/25 04:11:44;;;;;;;;;3.67;3.67;;;;;12.28;77.95;102994.16;2020547;27;2742447;-78
2024/01/25 04:12:54;;;;;;;;;3.33;3.33;;;;;12.29;78.67;102992.38;2056991;27;2750289;-77
2024/01/25 04:14:05;;;;;;;;;4.67;4.67;;;;;12.27;78.18;102988.00;2064682;27;2750253;-77
2024/01/25 04:15:16;;;;;;;;;4.00;4.00;;;;;12.28;78.43;102986.22;2057431;27;2749983;-78
2024/01/25 04:16:27;;;;;;;;;4.00;4.00;;;;;12.28;78.30;102983.59;2047813;27;2744030;-77
2024/01/25 04:17:38;;;;;;;;;4.00;4.00;;;;;12.28;78.45;102988.88;2031762;27;2748204;-78
2024/01/25 04:18:49;;;;;;;;;3.67;3.67;;;;;12.25;78.24;102984.50;2040395;27;2744023;-78
2024/01/25 04:20:00;;;;;;;;;5.00;5.00;;;;;12.27;78.56;102981.88;2061194;27;2750747;-78
2024/01/25 04:21:10;;;;;;;;;5.00;5.00;;;;;12.25;78.51;102984.50;2013143;27;2747140;-78
2024/01/25 04:22:21;;;;;;;;;5.00;5.00;;;;;12.27;78.53;102981.88;2051128;27;2750292;-78
2024/01/25 04:23:32;;;;;;;;;5.00;5.00;;;;;12.24;78.60;102972.19;2041116;28;2741952;-78
2024/01/25 04:24:43;;;;;;;;;5.00;5.00;;;;;12.26;78.60;102982.72;2037369;27;2746095;-77
2024/01/25 04:25:57;;;;;;;;;6.00;6.00;;;;;12.25;78.56;102980.97;2065570;27;2746121;-78
2024/01/25 04:27:07;;;;;;;;;7.00;7.00;;;;;12.26;78.54;102980.09;2025893;27;2745100;-78
2024/01/25 04:28:18;;;;;;;;;7.00;7.00;;;;;12.24;78.56;102973.97;2061700;27;2746116;-78
2024/01/25 04:29:29;;;;;;;;;4.67;4.67;;;;;12.25;78.77;102980.97;2066342;27;2735692;-78
2024/01/25 04:30:42;;;;;;;;;5.17;5.17;;;;;12.24;78.78;102990.66;2040750;27;2740904;-78
2024/01/25 04:31:55;;;;;;;;;4.67;4.67;;;;;12.25;78.76;102989.75;2045348;27;2750284;-78
2024/01/25 04:33:08;;;;;;;;;5.33;5.33;;;;;12.24;78.85;102990.66;2045423;27;2737773;-78
2024/01/25 04:34:22;;;;;;;;;6.67;6.67;;;;;12.25;78.61;102988.88;2053449;27;2745048;-78
2024/01/25 04:35:32;;;;;;;;;6.33;6.33;;;;;12.26;78.47;102985.38;2024017;27;3451322;-78
2024/01/25 04:36:43;;;;;;;;;6.67;6.67;;;;;12.26;78.62;102990.66;2049830;27;2743060;-78
2024/01/25 04:37:54;;;;;;;;;5.33;5.33;;;;;12.26;79.10;102990.66;2049830;27;2746110;-78
2024/01/25 04:39:05;;;;;;;;;7.67;7.67;;;;;12.25;78.79;102992.41;2068700;27;2737817;-78
2024/01/25 04:40:19;;;;;;;;;6.50;6.50;;;;;12.26;78.59;102990.66;2037721;27;2746153;-78
2024/01/25 04:41:29;;;;;;;;;6.67;6.67;;;;;12.26;78.57;102982.72;2035355;27;3465849;-78
2024/01/25 04:42:40;;;;;;;;;6.00;6.00;;;;;12.27;78.63;102984.50;2060390;27;3452799;-78
2024/01/25 04:43:53;;;;;;;;;7.60;7.60;;;;;12.26;78.73;102983.63;2067976;27;2735690;-78
2024/01/25 04:45:07;;;;;;;;;7.33;7.00;;;;;12.26;78.64;102988.00;2046437;27;2741963;-78
2024/01/25 04:46:20;;;;;;;;;6.17;6.17;;;;;12.25;78.64;102973.94;2032694;27;2746086;-78
2024/01/25 04:47:31;;;;;;;;;5.00;5.00;;;;;12.27;78.82;102982.72;2011021;27;2745394;-78
2024/01/25 04:48:41;;;;;;;;;5.33;5.33;;;;;12.26;78.77;102985.38;2059068;27;2749213;-78
2024/01/25 04:49:52;;;;;;;;;8.00;6.00;;;;;12.25;78.86;102978.34;2063592;27;2748222;-78
2024/01/25 04:51:03;;;;;;;;;5.67;5.00;;;;;12.25;78.75;102973.06;2011010;27;2743518;-78
2024/01/25 04:52:15;;;;;;;;;5.50;5.50;;;;;12.24;78.82;102971.31;2061042;27;2746145;-78
2024/01/25 04:53:25;;;;;;;;;5.33;5.33;;;;;12.23;78.76;102974.81;2011614;27;2750283;-78
2024/01/25 04:54:36;;;;;;;;;5.33;5.33;;;;;12.22;78.55;102971.31;2058964;27;2740890;-78
2024/01/25 04:55:47;;;;;;;;;6.00;6.00;;;;;12.23;78.85;102977.47;2011790;27;2742982;-78
2024/01/25 04:56:58;;;;;;;;;7.00;7.00;;;;;12.22;78.90;102967.81;2065775;27;2739316;-78
2024/01/25 04:58:11;;;;;;;;;7.67;7.33;;;;;12.22;78.72;102973.94;2068646;27;2736308;-78
2024/01/25 04:59:24;;;;;;;;;5.83;5.83;;;;;12.22;79.14;102967.81;2040192;27;2740894;-78
2024/01/25 05:00:39;;;;;;;;;5.00;5.00;;;;;12.23;78.72;102964.28;2038509;27;2748197;-78
2024/01/25 05:01:55;;;;;;;;;5.50;5.50;;;;;12.22;78.74;102966.03;2045682;27;2746085;-78
2024/01/25 05:03:05;;;;;;;;;4.00;4.00;;;;;12.24;78.55;102971.31;2011223;27;2752438;-78
2024/01/25 05:04:16;;;;;;;;;5.00;5.00;;;;;12.23;78.92;102962.53;2045770;27;2742980;-78
2024/01/25 05:05:27;;;;;;;;;5.00;5.00;;;;;12.21;78.77;102964.28;2051878;27;3461711;-78
2024/01/25 05:06:38;;;;;;;;;6.00;6.00;;;;;12.23;78.91;102966.91;2050760;27;2748181;-78
2024/01/25 05:07:49;;;;;;;;;4.33;4.33;;;;;12.22;78.89;102965.19;2052918;27;2750678;-78
2024/01/25 05:08:59;;;;;;;;;5.33;5.33;;;;;12.23;78.92;102964.28;2054385;27;2750338;-79
2024/01/25 05:10:11;;;;;;;;;5.67;5.33;;;;;12.21;79.10;102961.66;2057966;27;2746082;-78
2024/01/25 05:11:24;;;;;;;;;5.33;5.33;;;;;12.21;78.88;102960.78;2038987;27;2738823;-78
2024/01/25 05:12:34;;;;;;;;;4.00;4.00;;;;;12.21;79.04;102958.13;2009102;27;2750277;-78
2024/01/25 05:13:45;;;;;;;;;5.00;5.00;;;;;12.21;78.84;102959.03;2060399;27;2740948;-78
2024/01/25 05:14:56;;;;;;;;;4.00;4.00;;;;;12.21;78.82;102955.50;2043325;27;2748241;-78
2024/01/25 05:16:07;;;;;;;;;5.00;5.00;;;;;12.20;79.14;102953.78;2052017;27;2748185;-78
2024/01/25 05:17:17;;;;;;;;;5.00;5.00;;;;;12.20;78.98;102959.91;2049379;27;2746091;-78
2024/01/25 05:18:28;;;;;;;;;5.67;5.67;;;;;12.19;79.17;102952.88;2067682;27;2740886;-78
2024/01/25 05:19:39;;;;;;;;;5.00;5.00;;;;;12.19;78.89;102949.38;2019120;27;2750279;-78
2024/01/25 05:20:50;;;;;;;;;4.67;4.67;;;;;12.20;79.02;102948.50;2060427;27;2750804;-78
2024/01/25 05:22:06;;;;;;;;;5.33;5.33;;;;;12.19;79.23;102946.72;2058129;27;2746130;-78
2024/01/25 05:23:16;;;;;;;;;7.00;7.00;;;;;12.19;78.90;102952.88;2042929;27;2747170;-78
2024/01/25 05:24:27;;;;;;;;;5.33;5.33;;;;;12.20;79.07;102951.13;2066200;27;2746089;-78
2024/01/25 05:25:37;;;;;;;;;5.00;5.00;;;;;12.20;79.42;102954.63;2035766;27;2746097;-78
2024/01/25 05:26:48;;;;;;;;;6.00;6.00;;;;;12.19;78.88;102947.63;2043351;27;2750261;-78
2024/01/25 05:27:59;;;;;;;;;6.33;6.33;;;;;12.20;79.12;102949.34;2046977;27;2746186;-78